Lincoln, NE

12:02 PM CST on February 14, 2016 (GMT -0600)
Lincoln Municipal | | Change Station
CLOSE
Current Station
Airport
Location: Lincoln,
Elevation: 1188 ft
Nearby Weather Stations

Elev 1188 ft 40.85 °N, 96.76 °W | Updated 8 minutes ago

Partly Cloudy
Partly Cloudy
37 °F
Feels Like 33 °F
N
5
Wind Variable Wind from SSW

Today
High -- | Low -- °F
--% Chance of Precip.
Yesterday
High -- | Low -- °F
Precip. -- in
Pressure 29.89 in
Visibility 10.0 miles
Clouds Few 3700 ft
Windchill 33 °F
Dew Point 28 °F
Humidity 70%
Rainfall 0.00 in
Snow Depth Not available.
7:23 AM 5:59 PM
Waxing Crescent, 44% visible
METAR KLNK 141754Z 20004KT 10SM FEW037 03/M02 A2985 RMK AO2 SLP121 60000 T00281022 10028 21056 58015
Pressure 29.89 in
Visibility 10.0 miles
Clouds Few 3700 ft
Windchill 33 °F
Dew Point 28 °F
Humidity 70%
Rainfall 0.00 in
Snow Depth Not available.
7:23 AM 5:59 PM
Waxing Crescent, 44% visible
METAR KLNK 141754Z 20004KT 10SM FEW037 03/M02 A2985 RMK AO2 SLP121 60000 T00281022 10028 21056 58015

10-Day Weather Forecast

Almanac

Astronomy

Feb. 14, 2016 Rise Set
Actual Time
Civil Twilight
Nautical Twilight
Astronomical Twilight
Moon
Length of Visible Light
Length of Day
Tomorrow will be .
, % of the Moon is Illuminated

Today's Extremes

State Highs State Lows

Community

WunderPhotos

Upload Photos

1,892,866 photos uploaded!

WunderBlog® & News

Nearby

Air Quality

  Air Quality AQ Index Pollutant
Not available.

Snow Depth

Station Depth Elevation

Earthquake Activity

City Distance Mag. Time & Date
Minimum magnitude displayed is 2.5.

Coastal Water Temperatures

Place Temperature

Stations

Nearby Weather Stations

Station Location Temp. Windchill Dew Point Humidity Wind Precip. Elev Updated Type
                   

Watches & Warnings

There are currently no watches in effect.